sensor_id;sensor_type;location;lat;lon;timestamp;P1;durP1;ratioP1;P2;durP2;ratioP2
67503;SDS011;54351;49.108;1.502;2022-09-20T00:03:46;659.17;;;609.38;;
67503;SDS011;54351;49.108;1.502;2022-09-20T00:06:13;663.33;;;613.65;;
67503;SDS011;54351;49.108;1.502;2022-09-20T00:08:40;642.30;;;593.28;;
67503;SDS011;54351;49.108;1.502;2022-09-20T00:11:07;673.45;;;622.25;;
67503;SDS011;54351;49.108;1.502;2022-09-20T00:13:34;678.58;;;626.67;;
67503;SDS011;54351;49.108;1.502;2022-09-20T00:16:09;651.53;;;601.22;;
67503;SDS011;54351;49.108;1.502;2022-09-20T00:18:36;676.67;;;624.10;;
67503;SDS011;54351;49.108;1.502;2022-09-20T00:21:02;669.30;;;617.47;;
67503;SDS011;54351;49.108;1.502;2022-09-20T00:23:29;642.92;;;592.90;;
67503;SDS011;54351;49.108;1.502;2022-09-20T00:25:58;604.53;;;557.13;;
67503;SDS011;54351;49.108;1.502;2022-09-20T00:28:25;623.58;;;575.22;;
67503;SDS011;54351;49.108;1.502;2022-09-20T00:30:52;664.13;;;612.78;;
67503;SDS011;54351;49.108;1.502;2022-09-20T00:33:18;654.25;;;603.30;;
67503;SDS011;54351;49.108;1.502;2022-09-20T00:35:44;662.75;;;611.88;;
67503;SDS011;54351;49.108;1.502;2022-09-20T00:38:11;629.40;;;580.90;;
67503;SDS011;54351;49.108;1.502;2022-09-20T00:40:40;619.75;;;571.63;;
67503;SDS011;54351;49.108;1.502;2022-09-20T00:43:09;646.45;;;597.03;;
67503;SDS011;54351;49.108;1.502;2022-09-20T00:45:38;675.38;;;623.95;;
67503;SDS011;54351;49.108;1.502;2022-09-20T00:50:53;715.72;;;661.55;;
67503;SDS011;54351;49.108;1.502;2022-09-20T00:53:30;686.45;;;634.38;;
67503;SDS011;54351;49.108;1.502;2022-09-20T00:55:58;710.05;;;656.42;;
67503;SDS011;54351;49.108;1.502;2022-09-20T00:58:26;701.00;;;648.13;;
67503;SDS011;54351;49.108;1.502;2022-09-20T01:00:53;691.05;;;638.78;;
67503;SDS011;54351;49.108;1.502;2022-09-20T01:03:20;691.00;;;638.42;;
67503;SDS011;54351;49.108;1.502;2022-09-20T01:05:46;659.10;;;608.58;;
67503;SDS011;54351;49.108;1.502;2022-09-20T01:08:13;640.05;;;590.50;;
67503;SDS011;54351;49.108;1.502;2022-09-20T01:10:39;719.70;;;665.22;;
67503;SDS011;54351;49.108;1.502;2022-09-20T01:13:05;727.25;;;671.70;;
67503;SDS011;54351;49.108;1.502;2022-09-20T01:15:32;722.15;;;667.55;;
67503;SDS011;54351;49.108;1.502;2022-09-20T01:17:59;738.50;;;681.50;;
67503;SDS011;54351;49.108;1.502;2022-09-20T01:20:35;745.65;;;688.83;;
67503;SDS011;54351;49.108;1.502;2022-09-20T01:28:10;722.58;;;667.45;;
67503;SDS011;54351;49.108;1.502;2022-09-20T01:31:00;716.95;;;662.42;;
67503;SDS011;54351;49.108;1.502;2022-09-20T01:33:26;737.60;;;680.90;;
67503;SDS011;54351;49.108;1.502;2022-09-20T01:35:54;696.97;;;644.15;;
67503;SDS011;54351;49.108;1.502;2022-09-20T01:45:56;704.85;;;651.22;;
67503;SDS011;54351;49.108;1.502;2022-09-20T01:48:25;717.15;;;662.25;;
67503;SDS011;54351;49.108;1.502;2022-09-20T01:51:04;706.22;;;652.53;;
67503;SDS011;54351;49.108;1.502;2022-09-20T02:12:17;643.95;;;595.47;;
67503;SDS011;54351;49.108;1.502;2022-09-20T02:17:13;694.85;;;642.28;;
67503;SDS011;54351;49.108;1.502;2022-09-20T02:24:52;626.20;;;578.97;;
67503;SDS011;54351;49.108;1.502;2022-09-20T02:38:00;691.85;;;640.28;;
67503;SDS011;54351;49.108;1.502;2022-09-20T02:40:46;745.05;;;689.85;;
67503;SDS011;54351;49.108;1.502;2022-09-20T02:48:13;719.67;;;665.08;;
67503;SDS011;54351;49.108;1.502;2022-09-20T02:58:08;753.55;;;696.10;;
67503;SDS011;54351;49.108;1.502;2022-09-20T03:01:30;703.35;;;650.65;;
67503;SDS011;54351;49.108;1.502;2022-09-20T03:06:03;730.47;;;677.03;;
67503;SDS011;54351;49.108;1.502;2022-09-20T03:08:34;710.67;;;657.88;;
67503;SDS011;54351;49.108;1.502;2022-09-20T03:11:24;699.63;;;646.97;;
67503;SDS011;54351;49.108;1.502;2022-09-20T03:16:42;707.88;;;655.85;;
67503;SDS011;54351;49.108;1.502;2022-09-20T03:29:25;582.88;;;539.65;;
67503;SDS011;54351;49.108;1.502;2022-09-20T03:34:45;572.80;;;530.47;;
67503;SDS011;54351;49.108;1.502;2022-09-20T03:42:17;682.00;;;632.05;;
67503;SDS011;54351;49.108;1.502;2022-09-20T03:57:33;460.52;;;428.00;;
67503;SDS011;54351;49.108;1.502;2022-09-20T04:00:19;399.42;;;371.60;;
67503;SDS011;54351;49.108;1.502;2022-09-20T04:05:17;425.15;;;395.67;;
67503;SDS011;54351;49.108;1.502;2022-09-20T04:13:04;322.58;;;301.80;;
67503;SDS011;54351;49.108;1.502;2022-09-20T04:15:36;273.00;;;256.23;;
67503;SDS011;54351;49.108;1.502;2022-09-20T04:23:07;259.83;;;243.30;;
67503;SDS011;54351;49.108;1.502;2022-09-20T04:25:38;209.13;;;196.02;;
67503;SDS011;54351;49.108;1.502;2022-09-20T04:28:08;173.75;;;162.95;;
67503;SDS011;54351;49.108;1.502;2022-09-20T04:30:37;186.27;;;174.45;;
67503;SDS011;54351;49.108;1.502;2022-09-20T04:33:18;231.07;;;216.98;;
67503;SDS011;54351;49.108;1.502;2022-09-20T04:38:30;236.50;;;222.00;;
67503;SDS011;54351;49.108;1.502;2022-09-20T04:41:16;260.75;;;244.68;;
67503;SDS011;54351;49.108;1.502;2022-09-20T04:51:59;144.77;;;135.82;;
67503;SDS011;54351;49.108;1.502;2022-09-20T05:00:35;140.95;;;131.73;;
67503;SDS011;54351;49.108;1.502;2022-09-20T05:03:11;161.85;;;152.05;;
67503;SDS011;54351;49.108;1.502;2022-09-20T05:08:19;157.77;;;147.60;;
67503;SDS011;54351;49.108;1.502;2022-09-20T05:11:11;158.52;;;148.73;;
67503;SDS011;54351;49.108;1.502;2022-09-20T05:13:56;148.05;;;137.77;;
67503;SDS011;54351;49.108;1.502;2022-09-20T05:16:37;143.90;;;134.85;;
67503;SDS011;54351;49.108;1.502;2022-09-20T05:19:37;160.35;;;149.77;;
67503;SDS011;54351;49.108;1.502;2022-09-20T05:30:29;132.15;;;124.43;;
67503;SDS011;54351;49.108;1.502;2022-09-20T05:35:36;121.38;;;113.65;;
67503;SDS011;54351;49.108;1.502;2022-09-20T05:38:25;136.00;;;127.07;;
67503;SDS011;54351;49.108;1.502;2022-09-20T05:43:34;114.97;;;107.75;;
67503;SDS011;54351;49.108;1.502;2022-09-20T06:01:33;195.70;;;183.93;;
67503;SDS011;54351;49.108;1.502;2022-09-20T06:04:14;240.13;;;224.68;;
67503;SDS011;54351;49.108;1.502;2022-09-20T06:06:56;181.13;;;170.50;;
67503;SDS011;54351;49.108;1.502;2022-09-20T06:14:53;173.90;;;163.35;;
67503;SDS011;54351;49.108;1.502;2022-09-20T06:22:22;193.20;;;179.75;;
67503;SDS011;54351;49.108;1.502;2022-09-20T06:25:03;228.15;;;212.82;;
67503;SDS011;54351;49.108;1.502;2022-09-20T06:27:42;244.52;;;228.85;;
67503;SDS011;54351;49.108;1.502;2022-09-20T06:30:27;246.13;;;226.32;;
67503;SDS011;54351;49.108;1.502;2022-09-20T06:32:58;262.48;;;241.95;;
67503;SDS011;54351;49.108;1.502;2022-09-20T06:35:44;269.48;;;248.65;;
67503;SDS011;54351;49.108;1.502;2022-09-20T06:41:14;180.95;;;168.05;;
67503;SDS011;54351;49.108;1.502;2022-09-20T06:43:56;231.32;;;214.90;;
67503;SDS011;54351;49.108;1.502;2022-09-20T06:46:28;202.98;;;189.43;;
67503;SDS011;54351;49.108;1.502;2022-09-20T06:48:55;219.23;;;203.65;;
67503;SDS011;54351;49.108;1.502;2022-09-20T06:51:21;237.32;;;219.65;;
67503;SDS011;54351;49.108;1.502;2022-09-20T06:53:48;243.70;;;225.80;;
67503;SDS011;54351;49.108;1.502;2022-09-20T06:56:15;294.25;;;272.38;;
67503;SDS011;54351;49.108;1.502;2022-09-20T06:58:42;205.48;;;192.48;;
67503;SDS011;54351;49.108;1.502;2022-09-20T07:01:08;253.77;;;234.82;;
67503;SDS011;54351;49.108;1.502;2022-09-20T07:03:34;332.65;;;308.13;;
67503;SDS011;54351;49.108;1.502;2022-09-20T07:06:01;281.98;;;260.20;;
67503;SDS011;54351;49.108;1.502;2022-09-20T07:08:28;335.83;;;309.63;;
67503;SDS011;54351;49.108;1.502;2022-09-20T07:10:54;310.98;;;286.52;;
67503;SDS011;54351;49.108;1.502;2022-09-20T07:13:20;400.85;;;372.17;;
67503;SDS011;54351;49.108;1.502;2022-09-20T07:15:46;360.50;;;332.58;;
67503;SDS011;54351;49.108;1.502;2022-09-20T07:18:12;275.48;;;255.48;;
67503;SDS011;54351;49.108;1.502;2022-09-20T07:20:39;291.45;;;270.38;;
67503;SDS011;54351;49.108;1.502;2022-09-20T07:23:05;259.77;;;239.88;;
67503;SDS011;54351;49.108;1.502;2022-09-20T07:25:32;242.30;;;224.40;;
67503;SDS011;54351;49.108;1.502;2022-09-20T07:27:58;310.60;;;289.42;;
67503;SDS011;54351;49.108;1.502;2022-09-20T07:30:24;366.75;;;339.30;;
67503;SDS011;54351;49.108;1.502;2022-09-20T07:32:50;312.65;;;290.33;;
67503;SDS011;54351;49.108;1.502;2022-09-20T07:35:16;482.98;;;446.30;;
67503;SDS011;54351;49.108;1.502;2022-09-20T07:37:42;292.08;;;271.30;;
67503;SDS011;54351;49.108;1.502;2022-09-20T07:40:09;282.50;;;260.05;;
67503;SDS011;54351;49.108;1.502;2022-09-20T07:42:35;385.45;;;357.58;;
67503;SDS011;54351;49.108;1.502;2022-09-20T07:45:01;347.92;;;323.08;;
67503;SDS011;54351;49.108;1.502;2022-09-20T07:47:31;339.63;;;315.17;;
67503;SDS011;54351;49.108;1.502;2022-09-20T07:49:57;395.63;;;365.13;;
67503;SDS011;54351;49.108;1.502;2022-09-20T07:52:23;458.83;;;422.35;;
67503;SDS011;54351;49.108;1.502;2022-09-20T07:54:49;422.08;;;388.52;;
67503;SDS011;54351;49.108;1.502;2022-09-20T07:57:15;493.73;;;454.83;;
67503;SDS011;54351;49.108;1.502;2022-09-20T07:59:42;615.60;;;564.42;;
67503;SDS011;54351;49.108;1.502;2022-09-20T08:02:14;385.55;;;349.92;;
67503;SDS011;54351;49.108;1.502;2022-09-20T08:04:40;437.95;;;398.70;;
67503;SDS011;54351;49.108;1.502;2022-09-20T08:07:07;435.55;;;395.55;;
67503;SDS011;54351;49.108;1.502;2022-09-20T08:09:33;482.17;;;437.85;;
67503;SDS011;54351;49.108;1.502;2022-09-20T08:11:59;436.33;;;396.80;;
67503;SDS011;54351;49.108;1.502;2022-09-20T08:14:25;612.50;;;556.33;;
67503;SDS011;54351;49.108;1.502;2022-09-20T08:16:52;506.67;;;460.27;;
67503;SDS011;54351;49.108;1.502;2022-09-20T08:19:21;597.65;;;541.75;;
67503;SDS011;54351;49.108;1.502;2022-09-20T08:21:47;469.90;;;426.17;;
67503;SDS011;54351;49.108;1.502;2022-09-20T08:24:14;566.38;;;512.80;;
67503;SDS011;54351;49.108;1.502;2022-09-20T08:26:40;487.98;;;446.75;;
67503;SDS011;54351;49.108;1.502;2022-09-20T08:29:06;573.03;;;528.00;;
67503;SDS011;54351;49.108;1.502;2022-09-20T08:31:33;552.13;;;509.42;;
67503;SDS011;54351;49.108;1.502;2022-09-20T08:34:01;546.58;;;502.48;;
67503;SDS011;54351;49.108;1.502;2022-09-20T08:36:28;677.92;;;622.63;;
67503;SDS011;54351;49.108;1.502;2022-09-20T08:38:54;681.00;;;625.92;;
67503;SDS011;54351;49.108;1.502;2022-09-20T08:41:30;651.40;;;596.10;;
67503;SDS011;54351;49.108;1.502;2022-09-20T08:46:34;666.60;;;609.25;;
67503;SDS011;54351;49.108;1.502;2022-09-20T08:49:02;689.85;;;631.03;;
67503;SDS011;54351;49.108;1.502;2022-09-20T08:51:31;739.05;;;677.47;;
67503;SDS011;54351;49.108;1.502;2022-09-20T08:53:57;722.80;;;661.78;;
67503;SDS011;54351;49.108;1.502;2022-09-20T08:56:25;733.67;;;671.53;;
67503;SDS011;54351;49.108;1.502;2022-09-20T08:58:52;664.70;;;608.05;;
67503;SDS011;54351;49.108;1.502;2022-09-20T09:01:22;747.45;;;684.08;;
67503;SDS011;54351;49.108;1.502;2022-09-20T09:03:49;701.90;;;643.07;;
67503;SDS011;54351;49.108;1.502;2022-09-20T09:06:17;725.13;;;662.22;;
67503;SDS011;54351;49.108;1.502;2022-09-20T09:08:43;712.08;;;653.13;;
67503;SDS011;54351;49.108;1.502;2022-09-20T09:11:17;710.08;;;651.92;;
67503;SDS011;54351;49.108;1.502;2022-09-20T09:16:30;700.13;;;641.63;;
67503;SDS011;54351;49.108;1.502;2022-09-20T09:18:57;739.72;;;678.42;;
67503;SDS011;54351;49.108;1.502;2022-09-20T09:21:24;702.35;;;645.08;;
67503;SDS011;54351;49.108;1.502;2022-09-20T09:26:23;725.60;;;666.03;;
67503;SDS011;54351;49.108;1.502;2022-09-20T09:31:34;705.42;;;645.78;;
67503;SDS011;54351;49.108;1.502;2022-09-20T09:34:02;704.25;;;645.33;;
67503;SDS011;54351;49.108;1.502;2022-09-20T09:36:28;733.28;;;671.83;;
67503;SDS011;54351;49.108;1.502;2022-09-20T09:41:40;721.72;;;662.50;;
67503;SDS011;54351;49.108;1.502;2022-09-20T09:46:45;757.40;;;694.70;;
67503;SDS011;54351;49.108;1.502;2022-09-20T09:49:18;710.35;;;651.60;;
67503;SDS011;54351;49.108;1.502;2022-09-20T09:54:20;738.63;;;677.33;;
67503;SDS011;54351;49.108;1.502;2022-09-20T09:56:54;743.30;;;681.28;;
67503;SDS011;54351;49.108;1.502;2022-09-20T10:05:02;713.28;;;653.58;;
67503;SDS011;54351;49.108;1.502;2022-09-20T10:07:33;773.60;;;709.80;;
67503;SDS011;54351;49.108;1.502;2022-09-20T10:15:02;741.88;;;678.20;;
67503;SDS011;54351;49.108;1.502;2022-09-20T10:17:46;767.38;;;703.00;;
67503;SDS011;54351;49.108;1.502;2022-09-20T10:20:28;768.20;;;702.42;;
67503;SDS011;54351;49.108;1.502;2022-09-20T10:30:21;784.97;;;718.50;;
67503;SDS011;54351;49.108;1.502;2022-09-20T10:35:21;773.70;;;707.67;;
67503;SDS011;54351;49.108;1.502;2022-09-20T10:42:48;807.92;;;737.47;;
67503;SDS011;54351;49.108;1.502;2022-09-20T10:45:50;780.25;;;714.15;;
67503;SDS011;54351;49.108;1.502;2022-09-20T10:48:23;775.40;;;708.90;;
67503;SDS011;54351;49.108;1.502;2022-09-20T10:53:50;784.63;;;717.30;;
67503;SDS011;54351;49.108;1.502;2022-09-20T11:09:45;788.03;;;720.55;;
67503;SDS011;54351;49.108;1.502;2022-09-20T11:14:48;799.05;;;730.35;;
67503;SDS011;54351;49.108;1.502;2022-09-20T11:17:23;819.33;;;748.30;;
67503;SDS011;54351;49.108;1.502;2022-09-20T11:19:59;775.72;;;709.45;;
67503;SDS011;54351;49.108;1.502;2022-09-20T11:22:37;794.08;;;725.83;;
67503;SDS011;54351;49.108;1.502;2022-09-20T11:27:38;712.58;;;652.70;;
67503;SDS011;54351;49.108;1.502;2022-09-20T11:30:06;782.88;;;716.35;;
67503;SDS011;54351;49.108;1.502;2022-09-20T11:32:39;806.97;;;736.92;;
67503;SDS011;54351;49.108;1.502;2022-09-20T11:37:43;763.28;;;698.97;;
67503;SDS011;54351;49.108;1.502;2022-09-20T11:42:38;758.80;;;694.97;;
67503;SDS011;54351;49.108;1.502;2022-09-20T11:45:05;793.67;;;726.88;;
67503;SDS011;54351;49.108;1.502;2022-09-20T11:47:37;719.85;;;661.83;;
67503;SDS011;54351;49.108;1.502;2022-09-20T11:57:43;718.50;;;660.72;;
67503;SDS011;54351;49.108;1.502;2022-09-20T12:00:10;706.40;;;649.78;;
67503;SDS011;54351;49.108;1.502;2022-09-20T12:07:57;662.67;;;611.28;;
67503;SDS011;54351;49.108;1.502;2022-09-20T12:12:57;536.90;;;496.60;;
67503;SDS011;54351;49.108;1.502;2022-09-20T12:15:25;514.40;;;475.63;;
67503;SDS011;54351;49.108;1.502;2022-09-20T12:24:01;467.13;;;433.20;;
67503;SDS011;54351;49.108;1.502;2022-09-20T12:26:03;417.33;;;388.10;;
67503;SDS011;54351;49.108;1.502;2022-09-20T12:28:33;413.30;;;384.80;;
67503;SDS011;54351;49.108;1.502;2022-09-20T12:34:00;333.08;;;311.75;;
67503;SDS011;54351;49.108;1.502;2022-09-20T12:36:30;339.25;;;316.65;;
67503;SDS011;54351;49.108;1.502;2022-09-20T12:41:46;294.38;;;275.20;;
67503;SDS011;54351;49.108;1.502;2022-09-20T12:55:37;447.10;;;414.75;;
67503;SDS011;54351;49.108;1.502;2022-09-20T13:03:10;462.27;;;428.77;;
67503;SDS011;54351;49.108;1.502;2022-09-20T13:05:46;490.52;;;454.42;;
67503;SDS011;54351;49.108;1.502;2022-09-20T13:08:24;509.27;;;471.58;;
67503;SDS011;54351;49.108;1.502;2022-09-20T13:10:57;512.72;;;474.88;;
67503;SDS011;54351;49.108;1.502;2022-09-20T13:15:51;460.13;;;427.88;;
67503;SDS011;54351;49.108;1.502;2022-09-20T13:18:17;459.88;;;427.13;;
67503;SDS011;54351;49.108;1.502;2022-09-20T13:20:44;407.73;;;379.83;;
67503;SDS011;54351;49.108;1.502;2022-09-20T13:23:17;366.60;;;342.67;;
67503;SDS011;54351;49.108;1.502;2022-09-20T13:25:44;411.85;;;383.70;;
67503;SDS011;54351;49.108;1.502;2022-09-20T13:28:18;355.48;;;332.10;;
67503;SDS011;54351;49.108;1.502;2022-09-20T13:30:46;330.13;;;308.40;;
67503;SDS011;54351;49.108;1.502;2022-09-20T13:35:42;328.77;;;307.58;;
67503;SDS011;54351;49.108;1.502;2022-09-20T13:38:09;290.73;;;272.23;;
67503;SDS011;54351;49.108;1.502;2022-09-20T13:40:36;413.48;;;385.25;;
67503;SDS011;54351;49.108;1.502;2022-09-20T13:43:45;375.27;;;349.88;;
67503;SDS011;54351;49.108;1.502;2022-09-20T13:45:59;337.35;;;315.70;;
67503;SDS011;54351;49.108;1.502;2022-09-20T13:48:31;318.77;;;298.45;;
67503;SDS011;54351;49.108;1.502;2022-09-20T13:50:57;256.92;;;240.38;;
67503;SDS011;54351;49.108;1.502;2022-09-20T13:53:24;276.88;;;259.63;;
67503;SDS011;54351;49.108;1.502;2022-09-20T13:55:50;169.35;;;158.85;;
67503;SDS011;54351;49.108;1.502;2022-09-20T14:00:56;189.48;;;176.77;;
67503;SDS011;54351;49.108;1.502;2022-09-20T14:03:22;229.25;;;214.05;;
67503;SDS011;54351;49.108;1.502;2022-09-20T14:05:51;240.55;;;222.95;;
67503;SDS011;54351;49.108;1.502;2022-09-20T14:08:22;199.07;;;184.77;;
67503;SDS011;54351;49.108;1.502;2022-09-20T14:13:15;221.30;;;205.70;;
67503;SDS011;54351;49.108;1.502;2022-09-20T14:15:43;248.75;;;229.55;;
67503;SDS011;54351;49.108;1.502;2022-09-20T14:18:13;224.23;;;207.50;;
67503;SDS011;54351;49.108;1.502;2022-09-20T14:20:41;192.90;;;178.80;;
67503;SDS011;54351;49.108;1.502;2022-09-20T14:23:28;165.68;;;153.85;;
67503;SDS011;54351;49.108;1.502;2022-09-20T14:28:38;295.63;;;272.17;;
67503;SDS011;54351;49.108;1.502;2022-09-20T14:31:11;426.98;;;389.75;;
67503;SDS011;54351;49.108;1.502;2022-09-20T14:33:48;350.35;;;322.45;;
67503;SDS011;54351;49.108;1.502;2022-09-20T14:36:18;298.63;;;275.58;;
67503;SDS011;54351;49.108;1.502;2022-09-20T14:38:45;371.88;;;341.88;;
67503;SDS011;54351;49.108;1.502;2022-09-20T14:41:12;345.05;;;316.98;;
67503;SDS011;54351;49.108;1.502;2022-09-20T14:43:38;330.80;;;305.83;;
67503;SDS011;54351;49.108;1.502;2022-09-20T14:46:15;430.85;;;395.63;;
67503;SDS011;54351;49.108;1.502;2022-09-20T14:48:42;430.67;;;395.85;;
67503;SDS011;54351;49.108;1.502;2022-09-20T14:51:10;366.20;;;337.52;;
67503;SDS011;54351;49.108;1.502;2022-09-20T14:53:38;445.63;;;408.73;;
67503;SDS011;54351;49.108;1.502;2022-09-20T14:58:31;506.50;;;462.77;;
67503;SDS011;54351;49.108;1.502;2022-09-20T15:01:05;465.33;;;426.42;;
67503;SDS011;54351;49.108;1.502;2022-09-20T15:03:40;449.10;;;411.05;;
67503;SDS011;54351;49.108;1.502;2022-09-20T15:06:09;386.63;;;354.42;;
67503;SDS011;54351;49.108;1.502;2022-09-20T15:08:36;230.15;;;213.18;;
67503;SDS011;54351;49.108;1.502;2022-09-20T15:11:02;266.02;;;246.05;;
67503;SDS011;54351;49.108;1.502;2022-09-20T15:13:29;270.15;;;249.73;;
67503;SDS011;54351;49.108;1.502;2022-09-20T15:15:55;277.42;;;255.77;;
67503;SDS011;54351;49.108;1.502;2022-09-20T15:18:22;243.57;;;224.90;;
67503;SDS011;54351;49.108;1.502;2022-09-20T15:20:50;261.30;;;241.40;;
67503;SDS011;54351;49.108;1.502;2022-09-20T15:23:16;327.95;;;302.08;;
67503;SDS011;54351;49.108;1.502;2022-09-20T15:25:42;252.98;;;233.50;;
67503;SDS011;54351;49.108;1.502;2022-09-20T15:28:12;298.95;;;275.33;;
67503;SDS011;54351;49.108;1.502;2022-09-20T15:30:42;321.27;;;295.17;;
67503;SDS011;54351;49.108;1.502;2022-09-20T15:33:09;305.30;;;281.25;;
67503;SDS011;54351;49.108;1.502;2022-09-20T15:35:35;220.80;;;204.40;;
67503;SDS011;54351;49.108;1.502;2022-09-20T15:38:01;288.65;;;266.52;;
67503;SDS011;54351;49.108;1.502;2022-09-20T15:40:27;218.13;;;202.15;;
67503;SDS011;54351;49.108;1.502;2022-09-20T15:42:54;242.45;;;224.50;;
67503;SDS011;54351;49.108;1.502;2022-09-20T15:45:22;277.85;;;256.33;;
67503;SDS011;54351;49.108;1.502;2022-09-20T15:47:50;277.45;;;256.27;;
67503;SDS011;54351;49.108;1.502;2022-09-20T15:50:19;261.52;;;241.43;;
67503;SDS011;54351;49.108;1.502;2022-09-20T15:52:49;224.43;;;208.43;;
67503;SDS011;54351;49.108;1.502;2022-09-20T15:55:16;236.48;;;218.98;;
67503;SDS011;54351;49.108;1.502;2022-09-20T15:57:43;220.57;;;205.38;;
67503;SDS011;54351;49.108;1.502;2022-09-20T16:00:09;206.90;;;193.13;;
67503;SDS011;54351;49.108;1.502;2022-09-20T16:02:35;173.73;;;161.70;;
67503;SDS011;54351;49.108;1.502;2022-09-20T16:05:01;205.63;;;190.90;;
67503;SDS011;54351;49.108;1.502;2022-09-20T16:07:27;174.23;;;162.85;;
67503;SDS011;54351;49.108;1.502;2022-09-20T16:09:54;181.98;;;169.63;;
67503;SDS011;54351;49.108;1.502;2022-09-20T16:12:21;175.90;;;163.70;;
67503;SDS011;54351;49.108;1.502;2022-09-20T16:14:48;174.07;;;162.55;;
67503;SDS011;54351;49.108;1.502;2022-09-20T16:17:14;146.10;;;136.63;;
67503;SDS011;54351;49.108;1.502;2022-09-20T16:19:40;147.73;;;138.40;;
67503;SDS011;54351;49.108;1.502;2022-09-20T16:22:08;183.90;;;172.07;;
67503;SDS011;54351;49.108;1.502;2022-09-20T16:24:36;183.55;;;172.23;;
67503;SDS011;54351;49.108;1.502;2022-09-20T16:27:03;207.40;;;194.45;;
67503;SDS011;54351;49.108;1.502;2022-09-20T16:29:30;212.98;;;199.98;;
67503;SDS011;54351;49.108;1.502;2022-09-20T16:31:57;254.13;;;238.68;;
67503;SDS011;54351;49.108;1.502;2022-09-20T16:34:27;248.77;;;233.23;;
67503;SDS011;54351;49.108;1.502;2022-09-20T16:36:59;273.92;;;257.10;;
67503;SDS011;54351;49.108;1.502;2022-09-20T16:39:26;216.40;;;202.95;;
67503;SDS011;54351;49.108;1.502;2022-09-20T16:41:53;190.40;;;178.27;;
67503;SDS011;54351;49.108;1.502;2022-09-20T16:44:21;181.05;;;169.30;;
67503;SDS011;54351;49.108;1.502;2022-09-20T16:46:47;189.25;;;177.55;;
67503;SDS011;54351;49.108;1.502;2022-09-20T16:49:14;238.00;;;222.90;;
67503;SDS011;54351;49.108;1.502;2022-09-20T16:51:41;294.10;;;275.45;;
67503;SDS011;54351;49.108;1.502;2022-09-20T16:54:11;235.82;;;221.52;;
67503;SDS011;54351;49.108;1.502;2022-09-20T16:56:45;315.92;;;296.40;;
67503;SDS011;54351;49.108;1.502;2022-09-20T16:59:11;421.48;;;394.17;;
67503;SDS011;54351;49.108;1.502;2022-09-20T17:01:38;463.25;;;432.23;;
67503;SDS011;54351;49.108;1.502;2022-09-20T17:04:04;493.98;;;459.52;;
67503;SDS011;54351;49.108;1.502;2022-09-20T17:06:31;484.33;;;450.80;;
67503;SDS011;54351;49.108;1.502;2022-09-20T17:08:58;607.33;;;563.83;;
67503;SDS011;54351;49.108;1.502;2022-09-20T17:11:29;510.83;;;475.20;;
67503;SDS011;54351;49.108;1.502;2022-09-20T17:13:55;445.30;;;415.42;;
67503;SDS011;54351;49.108;1.502;2022-09-20T17:16:25;472.77;;;441.00;;
67503;SDS011;54351;49.108;1.502;2022-09-20T17:18:52;544.17;;;505.52;;
67503;SDS011;54351;49.108;1.502;2022-09-20T17:21:18;561.03;;;520.75;;
67503;SDS011;54351;49.108;1.502;2022-09-20T17:23:46;619.90;;;573.78;;
67503;SDS011;54351;49.108;1.502;2022-09-20T17:26:14;591.80;;;549.17;;
67503;SDS011;54351;49.108;1.502;2022-09-20T17:28:41;607.45;;;563.38;;
67503;SDS011;54351;49.108;1.502;2022-09-20T17:31:09;569.17;;;527.75;;
67503;SDS011;54351;49.108;1.502;2022-09-20T17:33:35;623.13;;;577.15;;
67503;SDS011;54351;49.108;1.502;2022-09-20T17:36:02;637.10;;;589.95;;
67503;SDS011;54351;49.108;1.502;2022-09-20T17:38:28;670.13;;;619.70;;
67503;SDS011;54351;49.108;1.502;2022-09-20T17:40:59;662.67;;;614.10;;
67503;SDS011;54351;49.108;1.502;2022-09-20T17:43:25;670.38;;;619.83;;
67503;SDS011;54351;49.108;1.502;2022-09-20T17:45:53;718.55;;;662.88;;
67503;SDS011;54351;49.108;1.502;2022-09-20T17:48:21;734.47;;;677.17;;
67503;SDS011;54351;49.108;1.502;2022-09-20T17:50:54;715.60;;;658.25;;
67503;SDS011;54351;49.108;1.502;2022-09-20T17:53:20;680.00;;;627.50;;
67503;SDS011;54351;49.108;1.502;2022-09-20T17:55:55;691.63;;;637.50;;
67503;SDS011;54351;49.108;1.502;2022-09-20T17:58:22;680.08;;;626.13;;
67503;SDS011;54351;49.108;1.502;2022-09-20T18:00:48;729.78;;;671.88;;
67503;SDS011;54351;49.108;1.502;2022-09-20T18:03:15;744.90;;;685.83;;
67503;SDS011;54351;49.108;1.502;2022-09-20T18:05:41;748.42;;;687.42;;
67503;SDS011;54351;49.108;1.502;2022-09-20T18:08:07;728.97;;;670.45;;
67503;SDS011;54351;49.108;1.502;2022-09-20T18:10:34;739.15;;;679.45;;
67503;SDS011;54351;49.108;1.502;2022-09-20T18:13:00;772.42;;;707.60;;
67503;SDS011;54351;49.108;1.502;2022-09-20T18:15:26;716.35;;;656.33;;
67503;SDS011;54351;49.108;1.502;2022-09-20T18:17:52;748.03;;;685.35;;
67503;SDS011;54351;49.108;1.502;2022-09-20T18:20:18;694.80;;;636.00;;
67503;SDS011;54351;49.108;1.502;2022-09-20T18:22:47;718.53;;;658.30;;
67503;SDS011;54351;49.108;1.502;2022-09-20T18:25:13;698.75;;;639.72;;
67503;SDS011;54351;49.108;1.502;2022-09-20T18:27:39;656.63;;;601.25;;
67503;SDS011;54351;49.108;1.502;2022-09-20T18:30:06;690.47;;;632.65;;
67503;SDS011;54351;49.108;1.502;2022-09-20T18:32:32;678.03;;;621.10;;
67503;SDS011;54351;49.108;1.502;2022-09-20T18:34:58;643.75;;;589.67;;
67503;SDS011;54351;49.108;1.502;2022-09-20T18:37:25;666.78;;;611.13;;
67503;SDS011;54351;49.108;1.502;2022-09-20T18:39:51;681.90;;;624.50;;
67503;SDS011;54351;49.108;1.502;2022-09-20T18:42:17;658.33;;;603.08;;
67503;SDS011;54351;49.108;1.502;2022-09-20T18:44:43;672.75;;;617.55;;
67503;SDS011;54351;49.108;1.502;2022-09-20T18:47:09;662.80;;;608.13;;
67503;SDS011;54351;49.108;1.502;2022-09-20T18:49:36;664.90;;;609.65;;
67503;SDS011;54351;49.108;1.502;2022-09-20T18:52:02;642.85;;;590.25;;
67503;SDS011;54351;49.108;1.502;2022-09-20T18:54:28;684.83;;;627.45;;
67503;SDS011;54351;49.108;1.502;2022-09-20T18:56:57;668.00;;;612.15;;
67503;SDS011;54351;49.108;1.502;2022-09-20T18:59:24;638.75;;;585.45;;
67503;SDS011;54351;49.108;1.502;2022-09-20T19:11:59;658.47;;;603.45;;
67503;SDS011;54351;49.108;1.502;2022-09-20T19:14:32;666.47;;;610.75;;
67503;SDS011;54351;49.108;1.502;2022-09-20T19:17:01;711.65;;;651.47;;
67503;SDS011;54351;49.108;1.502;2022-09-20T19:22:34;624.60;;;573.28;;
67503;SDS011;54351;49.108;1.502;2022-09-20T19:27:32;624.75;;;575.00;;
67503;SDS011;54351;49.108;1.502;2022-09-20T19:29:59;641.25;;;589.42;;
67503;SDS011;54351;49.108;1.502;2022-09-20T19:32:25;663.22;;;607.97;;